createdAt,value
2023-01-22T00:00:16.085Z,182.38
2023-01-22T00:02:46.205Z,184.57
2023-01-22T00:05:15.949Z,182.05
2023-01-22T00:07:47.150Z,183.02
2023-01-22T00:10:17.239Z,189.65
2023-01-22T00:12:46.742Z,178.95
2023-01-22T00:15:16.406Z,180.85
2023-01-22T00:17:45.912Z,174.95
2023-01-22T00:20:16.243Z,171.80
2023-01-22T00:22:45.893Z,166.45
2023-01-22T00:25:15.531Z,146.38
2023-01-22T00:27:45.051Z,151.43
2023-01-22T00:30:14.894Z,146.73
2023-01-22T00:32:44.408Z,156.30
2023-01-22T00:35:17.067Z,165.85
2023-01-22T00:37:49.787Z,154.35
2023-01-22T00:40:20.552Z,155.80
2023-01-22T00:42:50.225Z,144.52
2023-01-22T00:45:20.045Z,132.88
2023-01-22T00:47:49.782Z,125.20
2023-01-22T00:50:20.761Z,137.05
2023-01-22T00:52:50.393Z,127.45
2023-01-22T00:55:20.563Z,137.98
2023-01-22T00:57:50.144Z,128.02
2023-01-22T01:00:21.320Z,137.88
2023-01-22T01:03:11.026Z,139.03
2023-01-22T01:05:44.714Z,136.98
2023-01-22T01:08:15.537Z,141.48
2023-01-22T01:10:48.942Z,143.15
2023-01-22T01:13:20.089Z,167.00
2023-01-22T01:15:51.413Z,184.05
2023-01-22T01:18:23.382Z,188.77
2023-01-22T01:20:58.705Z,204.23
2023-01-22T01:23:30.412Z,200.68
2023-01-22T01:26:00.931Z,211.60
2023-01-22T01:28:31.832Z,236.10
2023-01-22T01:31:08.244Z,211.15
2023-01-22T01:33:37.932Z,213.80
2023-01-22T01:36:15.037Z,242.30
2023-01-22T01:38:46.426Z,216.75
2023-01-22T01:41:19.765Z,212.32
2023-01-22T01:44:07.891Z,216.70
2023-01-22T01:46:50.150Z,209.63
2023-01-22T01:49:47.112Z,204.17
2023-01-22T01:52:19.071Z,222.27
2023-01-22T01:54:54.364Z,217.38
2023-01-22T01:57:29.364Z,208.10
2023-01-22T02:00:02.144Z,213.35
2023-01-22T02:02:43.155Z,220.65
2023-01-22T02:05:13.869Z,212.35
2023-01-22T02:07:45.152Z,200.60
2023-01-22T02:10:16.736Z,200.23
2023-01-22T02:12:47.522Z,205.60
2023-01-22T02:15:17.961Z,201.25
2023-01-22T02:17:49.916Z,199.27
2023-01-22T02:20:21.037Z,195.57
2023-01-22T02:22:51.780Z,212.88
2023-01-22T02:25:22.246Z,224.63
2023-01-22T02:27:52.665Z,208.15
2023-01-22T02:30:25.392Z,206.18
2023-01-22T02:32:55.917Z,205.45
2023-01-22T02:35:27.867Z,186.85
2023-01-22T02:37:58.532Z,210.45
2023-01-22T02:40:31.279Z,194.93
2023-01-22T02:43:03.286Z,201.30
2023-01-22T02:45:36.599Z,196.05
2023-01-22T02:48:07.937Z,229.00
2023-01-22T02:50:39.152Z,215.43
2023-01-22T02:53:09.792Z,227.15
2023-01-22T02:55:41.140Z,228.40
2023-01-22T02:58:12.384Z,219.25
2023-01-22T03:00:42.584Z,199.30
2023-01-22T03:03:16.838Z,201.17
2023-01-22T03:05:52.440Z,162.85
2023-01-22T03:08:22.878Z,178.50
2023-01-22T03:10:53.195Z,172.70
2023-01-22T03:13:41.559Z,163.30
2023-01-22T03:16:31.719Z,178.70
2023-01-22T03:19:24.200Z,162.82
2023-01-22T03:21:55.394Z,157.80
2023-01-22T03:24:26.900Z,156.55
2023-01-22T03:26:58.381Z,155.18
2023-01-22T03:29:31.711Z,163.32
2023-01-22T03:32:03.177Z,143.43
2023-01-22T03:34:34.952Z,160.80
2023-01-22T03:37:08.828Z,141.68
2023-01-22T03:42:11.369Z,125.05
2023-01-22T03:44:43.238Z,140.48
2023-01-22T03:47:12.781Z,130.25
2023-01-22T03:49:42.507Z,111.05
2023-01-22T03:52:13.218Z,114.55
2023-01-22T03:54:42.991Z,117.45
2023-01-22T03:57:13.893Z,98.85
2023-01-22T03:59:44.853Z,98.13
2023-01-22T04:02:14.512Z,101.55
2023-01-22T04:05:02.025Z,90.90
2023-01-22T04:07:33.555Z,87.07
2023-01-22T04:10:03.456Z,83.63
2023-01-22T04:12:33.045Z,69.90
2023-01-22T04:15:05.835Z,70.95
2023-01-22T04:17:35.589Z,73.07
2023-01-22T04:20:33.917Z,69.70
2023-01-22T04:23:26.559Z,71.10
2023-01-22T04:25:56.556Z,84.10
2023-01-22T04:28:26.431Z,70.95
2023-01-22T04:30:58.321Z,80.38
2023-01-22T04:33:39.547Z,69.70
2023-01-22T04:36:13.718Z,84.78
2023-01-22T04:38:44.413Z,75.50
2023-01-22T04:41:14.573Z,72.65
2023-01-22T04:43:45.613Z,90.20
2023-01-22T04:46:15.916Z,80.95
2023-01-22T04:48:47.264Z,76.00
2023-01-22T04:51:18.258Z,62.53
2023-01-22T04:53:48.050Z,75.35
2023-01-22T04:56:19.484Z,80.43
2023-01-22T04:58:50.794Z,65.90
2023-01-22T05:01:20.606Z,72.03
2023-01-22T05:03:50.132Z,111.55
2023-01-22T05:06:19.672Z,84.95
2023-01-22T05:08:49.216Z,78.88
2023-01-22T05:11:18.845Z,63.13
2023-01-22T05:13:59.608Z,102.05
2023-01-22T05:16:29.508Z,76.97
2023-01-22T05:18:59.357Z,200.82
2023-01-22T05:21:29.900Z,89.68
2023-01-22T05:23:59.370Z,91.13
2023-01-22T05:26:31.386Z,65.15
2023-01-22T05:29:06.161Z,64.90
2023-01-22T05:31:54.854Z,60.33
2023-01-22T05:34:41.310Z,56.85
2023-01-22T05:37:12.626Z,65.93
2023-01-22T05:39:42.406Z,70.05
2023-01-22T05:42:17.566Z,65.78
2023-01-22T05:44:50.322Z,69.10
2023-01-22T05:47:23.582Z,74.60
2023-01-22T05:50:13.304Z,67.28
2023-01-22T05:52:43.965Z,63.58
2023-01-22T05:55:13.912Z,54.45
2023-01-22T05:57:48.586Z,67.47
2023-01-22T06:00:21.031Z,78.82
2023-01-22T06:03:02.037Z,53.28
2023-01-22T06:05:40.522Z,46.92
2023-01-22T06:08:10.738Z,47.63
2023-01-22T06:10:50.250Z,48.58
2023-01-22T06:13:21.328Z,44.63
2023-01-22T06:15:58.181Z,46.33
2023-01-22T06:18:50.402Z,41.77
2023-01-22T06:21:20.179Z,41.50
2023-01-22T06:23:49.830Z,43.20
2023-01-22T06:26:20.092Z,40.17
2023-01-22T06:28:49.817Z,37.47
2023-01-22T06:31:19.517Z,38.88
2023-01-22T06:33:49.342Z,39.17
2023-01-22T06:36:18.802Z,36.00
2023-01-22T06:38:48.812Z,35.63
2023-01-22T06:41:23.072Z,36.28
2023-01-22T06:43:58.017Z,40.30
2023-01-22T06:46:27.970Z,35.67
2023-01-22T06:49:12.303Z,47.53
2023-01-22T06:51:43.183Z,59.30
2023-01-22T06:54:15.162Z,56.47
2023-01-22T06:56:45.814Z,48.42
2023-01-22T06:59:16.365Z,51.72
2023-01-22T07:01:46.079Z,65.57
2023-01-22T07:04:15.462Z,117.32
2023-01-22T07:06:44.896Z,89.10
2023-01-22T07:09:14.979Z,68.97
2023-01-22T07:11:45.055Z,59.20
2023-01-22T07:14:14.694Z,42.40
2023-01-22T07:16:44.173Z,31.23
2023-01-22T07:19:13.640Z,32.53
2023-01-22T07:21:43.149Z,38.17
2023-01-22T07:24:13.495Z,77.93
2023-01-22T07:26:44.543Z,72.97
2023-01-22T07:29:14.265Z,95.22
2023-01-22T07:31:44.194Z,135.20
2023-01-22T07:34:14.154Z,69.68
2023-01-22T07:36:43.664Z,40.65
2023-01-22T07:39:12.977Z,41.05
2023-01-22T07:41:42.593Z,39.90
2023-01-22T07:44:14.250Z,36.35
2023-01-22T07:46:44.405Z,32.33
2023-01-22T07:49:14.059Z,39.70
2023-01-22T07:51:43.599Z,33.45
2023-01-22T07:54:12.911Z,34.63
2023-01-22T07:56:42.587Z,28.58
2023-01-22T07:59:12.163Z,38.70
2023-01-22T08:01:41.867Z,34.95
2023-01-22T08:04:11.208Z,32.03
2023-01-22T08:06:40.978Z,22.48
2023-01-22T08:09:10.586Z,24.35
2023-01-22T08:11:40.255Z,38.63
2023-01-22T08:14:09.729Z,30.05
2023-01-22T08:16:39.260Z,27.55
2023-01-22T08:19:08.990Z,26.35
2023-01-22T08:21:38.306Z,28.67
2023-01-22T08:24:09.407Z,40.85
2023-01-22T08:26:40.374Z,50.70
2023-01-22T08:29:10.353Z,39.25
2023-01-22T08:31:40.148Z,58.03
2023-01-22T08:34:09.875Z,26.52
2023-01-22T08:36:39.393Z,50.90
2023-01-22T08:39:09.145Z,33.38
2023-01-22T08:41:38.786Z,30.40
2023-01-22T08:44:08.914Z,28.77
2023-01-22T08:46:41.314Z,27.63
2023-01-22T08:49:11.127Z,25.42
2023-01-22T08:51:40.756Z,28.67
2023-01-22T08:54:10.103Z,29.77
2023-01-22T08:56:39.903Z,33.83
2023-01-22T08:59:09.727Z,31.80
2023-01-22T09:01:39.092Z,32.13
2023-01-22T09:04:10.884Z,23.92
2023-01-22T09:06:43.520Z,30.90
2023-01-22T09:09:14.432Z,35.47
2023-01-22T09:11:44.603Z,30.13
2023-01-22T09:14:15.339Z,34.65
2023-01-22T09:16:45.178Z,31.63
2023-01-22T09:19:14.847Z,33.60
2023-01-22T09:21:44.265Z,32.80
2023-01-22T09:24:14.011Z,31.20
2023-01-22T09:26:43.773Z,29.58
2023-01-22T09:29:13.360Z,23.33
2023-01-22T09:31:43.162Z,19.92
2023-01-22T09:36:44.747Z,18.90
2023-01-22T09:39:14.114Z,19.73
2023-01-22T09:41:51.856Z,23.65
2023-01-22T09:44:29.004Z,18.42
2023-01-22T09:47:21.966Z,27.92
2023-01-22T09:50:20.710Z,22.02
2023-01-22T09:52:53.204Z,23.55
2023-01-22T09:55:32.160Z,22.30
2023-01-22T09:58:06.781Z,17.77
2023-01-22T10:00:48.386Z,16.23
2023-01-22T10:03:27.340Z,16.52
2023-01-22T10:06:06.029Z,16.40
2023-01-22T10:08:55.631Z,16.30
2023-01-22T10:11:25.663Z,18.38
2023-01-22T10:14:00.553Z,19.55
2023-01-22T10:16:30.804Z,19.45
2023-01-22T10:19:19.040Z,14.90
2023-01-22T10:22:02.944Z,22.73
2023-01-22T10:24:32.626Z,15.88
2023-01-22T10:27:13.570Z,24.25
2023-01-22T10:29:45.505Z,18.15
2023-01-22T10:32:31.239Z,12.77
2023-01-22T10:35:06.366Z,20.98
2023-01-22T10:37:56.619Z,37.30
2023-01-22T10:40:44.939Z,20.95
2023-01-22T10:43:19.423Z,21.77
2023-01-22T10:46:04.033Z,17.80
2023-01-22T10:48:35.272Z,19.45
2023-01-22T10:51:15.988Z,18.67
2023-01-22T10:53:57.047Z,29.67
2023-01-22T10:56:40.098Z,25.13
2023-01-22T10:59:28.757Z,20.33
2023-01-22T11:02:19.131Z,30.80
2023-01-22T11:04:49.006Z,34.65
2023-01-22T11:07:32.691Z,31.10
2023-01-22T11:10:05.302Z,35.45
2023-01-22T11:12:48.825Z,43.42
2023-01-22T11:15:36.967Z,34.08
2023-01-22T11:18:09.101Z,37.95
2023-01-22T11:20:57.632Z,25.88
2023-01-22T11:24:05.244Z,36.03
2023-01-22T11:26:53.413Z,40.28
2023-01-22T11:29:53.315Z,36.50
2023-01-22T11:32:58.239Z,37.42
2023-01-22T11:35:51.917Z,43.58
2023-01-22T11:38:38.385Z,36.20
2023-01-22T11:41:17.420Z,38.38
2023-01-22T11:44:22.262Z,34.67
2023-01-22T11:47:13.215Z,47.67
2023-01-22T11:49:45.708Z,39.78
2023-01-22T11:52:32.075Z,43.05
2023-01-22T11:55:20.098Z,46.55
2023-01-22T11:58:14.158Z,48.88
2023-01-22T12:00:50.943Z,41.05
2023-01-22T12:03:23.415Z,36.70
2023-01-22T12:05:56.071Z,46.03
2023-01-22T12:11:14.166Z,71.82
2023-01-22T12:14:12.982Z,94.55
2023-01-22T12:16:53.670Z,117.22
2023-01-22T12:19:31.811Z,116.50
2023-01-22T12:22:38.118Z,91.22
2023-01-22T12:25:21.185Z,72.82
2023-01-22T12:28:01.674Z,86.97
2023-01-22T12:30:46.550Z,79.45
2023-01-22T12:33:29.302Z,72.47
2023-01-22T12:36:02.406Z,64.25
2023-01-22T12:38:54.928Z,60.08
2023-01-22T12:41:36.587Z,70.32
2023-01-22T12:44:47.249Z,61.85
2023-01-22T12:47:31.102Z,75.18
2023-01-22T12:50:00.634Z,70.25
2023-01-22T12:52:33.204Z,90.13
2023-01-22T12:55:03.693Z,78.60
2023-01-22T12:57:43.491Z,85.05
2023-01-22T13:00:32.714Z,62.58
2023-01-22T13:03:31.745Z,66.43
2023-01-22T13:06:04.582Z,69.78
2023-01-22T13:08:45.877Z,62.58
2023-01-22T13:11:30.838Z,60.72
2023-01-22T13:14:23.019Z,70.35
2023-01-22T13:17:01.556Z,69.47
2023-01-22T13:19:46.940Z,94.50
2023-01-22T13:22:21.267Z,84.88
2023-01-22T13:24:56.212Z,81.55
2023-01-22T13:27:27.892Z,103.20
2023-01-22T13:30:19.184Z,85.07
2023-01-22T13:32:48.925Z,204.35
2023-01-22T13:35:20.023Z,120.68
2023-01-22T13:37:52.872Z,104.15
2023-01-22T13:42:55.017Z,112.00
2023-01-22T13:45:30.159Z,95.30
2023-01-22T13:48:04.973Z,77.20
2023-01-22T13:50:34.764Z,79.55
2023-01-22T13:53:05.043Z,107.47
2023-01-22T13:55:36.150Z,79.22
2023-01-22T13:58:06.485Z,68.05
2023-01-22T14:00:37.685Z,72.88
2023-01-22T14:03:23.890Z,73.03
2023-01-22T14:06:14.041Z,73.18
2023-01-22T14:09:01.466Z,88.03
2023-01-22T14:11:40.206Z,81.38
2023-01-22T14:14:20.989Z,59.50
2023-01-22T14:16:51.077Z,63.10
2023-01-22T14:19:20.739Z,61.75
2023-01-22T14:21:50.357Z,60.20
2023-01-22T14:24:19.759Z,60.85
2023-01-22T14:26:49.468Z,68.20
2023-01-22T14:29:18.938Z,59.33
2023-01-22T14:31:48.661Z,73.18
2023-01-22T14:34:18.288Z,69.53
2023-01-22T14:36:50.655Z,65.38
2023-01-22T14:39:20.105Z,62.53
2023-01-22T14:41:52.574Z,68.75
2023-01-22T14:44:22.182Z,71.57
2023-01-22T14:46:54.274Z,75.15
2023-01-22T14:49:23.880Z,58.28
2023-01-22T14:51:56.230Z,67.30
2023-01-22T14:54:26.176Z,70.18
2023-01-22T14:56:57.208Z,60.92
2023-01-22T14:59:26.697Z,74.18
2023-01-22T15:01:55.970Z,81.60
2023-01-22T15:04:25.649Z,89.85
2023-01-22T15:06:55.226Z,88.93
2023-01-22T15:09:24.842Z,77.03
2023-01-22T15:11:54.289Z,77.35
2023-01-22T15:14:24.086Z,95.38
2023-01-22T15:16:53.973Z,77.13
2023-01-22T15:19:23.757Z,85.00
2023-01-22T15:21:53.291Z,100.28
2023-01-22T15:24:24.755Z,95.07
2023-01-22T15:29:25.658Z,92.40
2023-01-22T15:31:55.146Z,108.25
2023-01-22T15:34:25.149Z,127.60
2023-01-22T15:36:54.548Z,114.47
2023-01-22T15:39:24.138Z,117.45
2023-01-22T15:41:53.842Z,103.50
2023-01-22T15:44:23.347Z,100.68
2023-01-22T15:46:53.190Z,109.13
2023-01-22T15:49:22.877Z,99.30
2023-01-22T15:51:52.451Z,111.60
2023-01-22T15:54:23.764Z,105.30
2023-01-22T15:59:24.646Z,72.63
2023-01-22T16:01:54.505Z,77.88
2023-01-22T16:04:24.430Z,68.20
2023-01-22T16:06:54.814Z,61.83
2023-01-22T16:09:25.197Z,65.28
2023-01-22T16:11:58.818Z,69.07
2023-01-22T16:14:30.413Z,63.53
2023-01-22T16:17:02.213Z,63.58
2023-01-22T16:19:32.294Z,79.82
2023-01-22T16:22:02.656Z,94.50
2023-01-22T16:24:32.882Z,92.20
2023-01-22T16:27:02.951Z,94.35
2023-01-22T16:29:32.710Z,108.95
2023-01-22T16:32:02.645Z,96.45
2023-01-22T16:34:32.508Z,89.68
2023-01-22T16:37:02.226Z,82.00
2023-01-22T16:39:35.550Z,90.43
2023-01-22T16:42:05.610Z,87.95
2023-01-22T16:44:35.039Z,79.38
2023-01-22T16:47:05.090Z,89.38
2023-01-22T16:49:35.798Z,85.32
2023-01-22T16:52:21.303Z,101.05
2023-01-22T16:54:54.444Z,110.00
2023-01-22T16:59:53.252Z,141.70
2023-01-22T17:02:23.229Z,159.35
2023-01-22T17:04:54.391Z,154.25
2023-01-22T17:07:33.549Z,134.10
2023-01-22T17:10:04.509Z,126.35
2023-01-22T17:12:35.218Z,139.18
2023-01-22T17:15:09.275Z,234.88
2023-01-22T17:17:39.695Z,245.93
2023-01-22T17:20:10.796Z,234.98
2023-01-22T17:22:41.797Z,234.90
2023-01-22T17:25:11.946Z,229.63
2023-01-22T17:27:43.235Z,250.48
2023-01-22T17:30:13.427Z,241.35
2023-01-22T17:32:42.951Z,241.45
2023-01-22T17:35:14.680Z,252.73
2023-01-22T17:37:44.488Z,236.60
2023-01-22T17:40:14.664Z,263.50
2023-01-22T17:42:44.118Z,238.90
2023-01-22T17:45:14.000Z,240.00
2023-01-22T17:47:46.904Z,214.85
2023-01-22T17:52:45.534Z,237.57
2023-01-22T17:55:15.026Z,247.38
2023-01-22T17:57:44.719Z,224.90
2023-01-22T18:00:15.062Z,254.30
2023-01-22T18:02:44.770Z,266.52
2023-01-22T18:05:15.389Z,272.88
2023-01-22T18:07:45.055Z,265.70
2023-01-22T18:10:14.630Z,239.63
2023-01-22T18:12:45.663Z,244.00
2023-01-22T18:15:15.239Z,240.25
2023-01-22T18:17:44.839Z,232.82
2023-01-22T18:20:14.807Z,213.70
2023-01-22T18:22:44.116Z,235.82
2023-01-22T18:25:13.995Z,223.75
2023-01-22T18:27:43.806Z,222.32
2023-01-22T18:30:13.548Z,237.05
2023-01-22T18:32:43.246Z,199.10
2023-01-22T18:35:12.802Z,141.80
2023-01-22T18:37:42.319Z,134.50
2023-01-22T18:40:13.125Z,119.13
2023-01-22T18:42:42.668Z,106.90
2023-01-22T18:45:13.304Z,88.00
2023-01-22T18:47:42.790Z,90.85
2023-01-22T18:50:15.162Z,99.07
2023-01-22T18:52:45.635Z,92.30
2023-01-22T18:55:18.060Z,101.55
2023-01-22T18:57:57.931Z,81.13
2023-01-22T19:00:38.765Z,89.25
2023-01-22T19:03:08.926Z,95.57
2023-01-22T19:05:41.099Z,85.93
2023-01-22T19:08:11.303Z,85.22
2023-01-22T19:10:40.897Z,94.93
2023-01-22T19:13:10.510Z,105.03
2023-01-22T19:15:40.548Z,100.00
2023-01-22T19:18:10.806Z,108.20
2023-01-22T19:20:41.122Z,100.10
2023-01-22T19:23:11.388Z,115.43
2023-01-22T19:25:40.926Z,113.60
2023-01-22T19:28:10.514Z,108.70
2023-01-22T19:30:41.094Z,106.45
2023-01-22T19:33:10.880Z,102.80
2023-01-22T19:35:48.119Z,96.45
2023-01-22T19:38:19.085Z,115.20
2023-01-22T19:40:49.023Z,96.53
2023-01-22T19:43:18.569Z,89.45
2023-01-22T19:45:48.186Z,91.85
2023-01-22T19:48:17.758Z,84.95
2023-01-22T19:50:47.311Z,84.18
2023-01-22T19:53:17.046Z,81.18
2023-01-22T19:55:46.394Z,75.90
2023-01-22T19:58:16.155Z,77.45
2023-01-22T20:00:46.307Z,87.10
2023-01-22T20:03:15.938Z,87.80
2023-01-22T20:05:46.554Z,108.50
2023-01-22T20:08:16.476Z,89.45
2023-01-22T20:10:46.385Z,76.05
2023-01-22T20:13:16.070Z,80.50
2023-01-22T20:15:45.932Z,85.15
2023-01-22T20:18:15.412Z,104.65
2023-01-22T20:20:52.745Z,127.88
2023-01-22T20:23:23.121Z,128.18
2023-01-22T20:25:53.540Z,142.75
2023-01-22T20:28:24.401Z,146.88
2023-01-22T20:31:07.091Z,140.88
2023-01-22T20:33:36.948Z,113.38
2023-01-22T20:36:09.758Z,125.60
2023-01-22T20:38:39.477Z,113.80
2023-01-22T20:41:12.279Z,95.65
2023-01-22T20:43:43.692Z,91.40
2023-01-22T20:46:16.955Z,79.40
2023-01-22T20:48:47.404Z,78.85
2023-01-22T20:51:19.764Z,74.03
2023-01-22T20:53:50.942Z,73.43
2023-01-22T20:56:31.501Z,64.40
2023-01-22T20:59:04.743Z,67.40
2023-01-22T21:01:35.119Z,64.20
2023-01-22T21:04:06.367Z,65.53
2023-01-22T21:06:37.635Z,77.00
2023-01-22T21:09:08.969Z,66.17
2023-01-22T21:11:41.324Z,70.93
2023-01-22T21:14:17.685Z,84.95
2023-01-22T21:16:48.062Z,82.57
2023-01-22T21:19:24.636Z,90.97
2023-01-22T21:21:56.525Z,91.40
2023-01-22T21:24:26.686Z,99.47
2023-01-22T21:26:56.430Z,94.88
2023-01-22T21:29:26.188Z,81.93
2023-01-22T21:31:56.033Z,81.65
2023-01-22T21:34:27.649Z,101.22
2023-01-22T21:36:59.742Z,95.55
2023-01-22T21:39:31.932Z,95.53
2023-01-22T21:42:20.356Z,109.32
2023-01-22T21:45:08.442Z,119.22
2023-01-22T21:47:38.012Z,115.00
2023-01-22T21:50:08.557Z,120.10
2023-01-22T21:52:38.133Z,133.93
2023-01-22T21:55:09.030Z,136.45
2023-01-22T21:57:39.520Z,150.55
2023-01-22T22:00:10.153Z,150.60
2023-01-22T22:02:40.161Z,159.35
2023-01-22T22:05:09.958Z,146.07
2023-01-22T22:07:39.548Z,161.90
2023-01-22T22:10:13.935Z,157.48
2023-01-22T22:12:44.034Z,151.48
2023-01-22T22:15:16.930Z,132.57
2023-01-22T22:17:46.577Z,139.75
2023-01-22T22:20:16.141Z,139.52
2023-01-22T22:22:46.935Z,138.52
2023-01-22T22:25:16.657Z,136.02
2023-01-22T22:27:46.151Z,153.30
2023-01-22T22:30:15.680Z,153.57
2023-01-22T22:32:45.336Z,158.38
2023-01-22T22:35:14.754Z,177.35
2023-01-22T22:37:44.443Z,260.35
2023-01-22T22:40:14.553Z,185.57
2023-01-22T22:42:44.281Z,172.82
2023-01-22T22:45:13.783Z,163.20
2023-01-22T22:47:43.105Z,143.32
2023-01-22T22:50:13.008Z,142.52
2023-01-22T22:52:43.236Z,134.18
2023-01-22T22:55:13.093Z,122.43
2023-01-22T22:57:42.382Z,127.57
2023-01-22T23:00:14.783Z,106.97
2023-01-22T23:02:44.417Z,104.55
2023-01-22T23:05:13.780Z,107.90
2023-01-22T23:07:43.813Z,118.68
2023-01-22T23:10:29.821Z,96.60
2023-01-22T23:13:02.174Z,102.82
2023-01-22T23:15:32.782Z,115.90
2023-01-22T23:18:02.637Z,103.15
2023-01-22T23:20:32.147Z,128.27
2023-01-22T23:23:01.804Z,148.77
2023-01-22T23:25:31.145Z,138.88
2023-01-22T23:28:00.712Z,147.20
2023-01-22T23:30:30.320Z,137.63
2023-01-22T23:32:59.831Z,134.13
2023-01-22T23:35:29.742Z,130.38
2023-01-22T23:37:59.632Z,186.25
2023-01-22T23:40:29.002Z,119.68
2023-01-22T23:42:58.914Z,106.85
2023-01-22T23:45:28.807Z,109.97
2023-01-22T23:47:58.543Z,103.07
2023-01-22T23:50:29.273Z,103.75
2023-01-22T23:52:58.972Z,113.50
2023-01-22T23:55:28.489Z,118.53
2023-01-22T23:57:57.956Z,121.00
